Time;durP1;ratioP1;P1;durP2;ratioP2;P2;SDS_P1;SDS_P2;PMS_P1;PMS_P2;Temp;Humidity;BMP_temperature;BMP_pressure;BME280_temperature;BME280_humidity;BME280_pressure;Samples;Min_cycle;Max_cycle;Signal;HPM_P1;HPM_P2
2022/04/20 00:00:56;;;;;;;8.35;7.35;;;;;;;4.45;71.79;99014.22;5126052;28;20104;-71
2022/04/20 00:03:29;;;;;;;9.10;8.20;;;;;;;4.47;71.17;99020.28;5126170;28;20040;-71
2022/04/20 00:06:01;;;;;;;7.95;6.85;;;;;;;4.45;71.18;99017.69;5126189;28;20353;-70
2022/04/20 00:08:34;;;;;;;9.50;7.50;;;;;;;4.42;71.36;99023.06;5126155;28;20040;-71
2022/04/20 00:11:07;;;;;;;7.00;6.30;;;;;;;4.09;71.21;98967.34;5126642;28;20084;-71
2022/04/20 00:13:39;;;;;;;8.02;6.97;;;;;;;4.44;71.19;99018.59;5126019;28;20046;-71
2022/04/20 00:16:12;;;;;;;7.47;6.53;;;;;;;4.43;71.08;99018.66;5126247;28;20093;-71
2022/04/20 00:18:44;;;;;;;7.18;6.47;;;;;;;4.40;71.15;99024.03;5125003;28;20043;-71
2022/04/20 00:21:16;;;;;;;7.22;6.53;;;;;;;4.39;71.42;99027.56;5126141;28;20043;-71
2022/04/20 00:23:49;;;;;;;7.90;6.82;;;;;;;4.40;71.28;99019.63;5125923;28;20057;-71
2022/04/20 00:26:23;;;;;;;7.00;5.55;;;;;;;4.35;71.51;99031.19;5125831;28;20035;-70
2022/04/20 00:28:55;;;;;;;6.38;5.75;;;;;;;4.29;71.59;99034.03;5125807;28;20092;-71
2022/04/20 00:31:27;;;;;;;6.13;5.53;;;;;;;4.31;71.37;99032.22;5125063;28;20047;-71
2022/04/20 00:33:59;;;;;;;6.85;5.80;;;;;;;4.30;71.68;99044.47;5107939;28;20043;-70
2022/04/20 00:36:31;;;;;;;9.57;6.53;;;;;;;4.34;71.01;99042.59;5129242;28;20088;-70
2022/04/20 00:39:04;;;;;;;7.47;6.25;;;;;;;4.31;71.16;99040.09;5129019;28;20047;-70
2022/04/20 00:41:37;;;;;;;6.68;5.80;;;;;;;4.27;71.24;99034.09;5129855;28;20039;-70
2022/04/20 00:44:11;;;;;;;7.57;6.32;;;;;;;4.23;71.24;99037.72;5129842;28;20056;-70
2022/04/20 00:46:47;;;;;;;7.13;6.00;;;;;;;4.24;71.46;99028.94;5129768;27;20039;-70
2022/04/20 00:49:20;;;;;;;7.05;5.93;;;;;;;4.23;71.22;99035.09;5129106;28;20225;-70
2022/04/20 00:51:54;;;;;;;8.60;6.00;;;;;;;3.61;71.70;98943.69;5129677;27;20310;-70
2022/04/20 00:54:26;;;;;;;7.57;6.22;;;;;;;4.17;71.49;99030.91;5129814;27;20043;-70
2022/04/20 00:57:00;;;;;;;7.22;5.70;;;;;;;4.18;71.81;99029.13;5129800;28;20044;-70
2022/04/20 00:59:35;;;;;;;6.80;5.85;;;;;;;3.96;71.26;98971.31;5129405;28;20184;-70
2022/04/20 01:02:07;;;;;;;;;;;;;;;4.26;72.59;99031.53;5129782;28;20124;-70
2022/04/20 01:04:39;;;;;;;6.93;6.22;;;;;;;3.90;71.78;98978.53;5129396;28;19916;-70
2022/04/20 01:07:12;;;;;;;6.43;5.53;;;;;;;4.24;71.86;99031.56;5129334;28;20040;-70
2022/04/20 01:09:45;;;;;;;7.25;6.55;;;;;;;4.30;71.09;99028.75;5129570;28;20043;-70
2022/04/20 01:12:21;;;;;;;7.03;6.22;;;;;;;4.26;71.65;99029.75;5129562;28;20039;-70
2022/04/20 01:14:53;;;;;;;6.35;5.50;;;;;;;4.02;71.58;98994.69;5129174;28;20210;-70
2022/04/20 01:17:25;;;;;;;7.25;5.82;;;;;;;4.30;70.98;99033.97;5129160;28;20040;-70
2022/04/20 01:19:57;;;;;;;6.85;5.57;;;;;;;3.98;71.12;98987.00;5129297;28;20047;-71
2022/04/20 01:22:29;;;;;;;9.32;6.68;;;;;;;3.91;71.55;98986.34;5129533;28;20039;-70
2022/04/20 01:24:57;;;;;;;7.03;6.32;;;;;;;4.24;71.68;99046.47;5129297;28;20107;-70
2022/04/20 01:27:28;;;;;;;5.75;5.13;;;;;;;4.25;71.10;99045.53;5129475;28;20024;-70
2022/04/20 01:29:58;;;;;;;7.90;7.03;;;;;;;4.24;71.05;99043.84;5128944;28;20047;-70
2022/04/20 01:32:28;;;;;;;6.03;5.43;;;;;;;4.18;71.46;99047.50;5129139;28;20023;-69
2022/04/20 01:34:58;;;;;;;6.03;5.43;;;;;;;4.20;71.48;99050.06;5128768;28;20040;-70
2022/04/20 01:37:30;;;;;;;7.47;6.22;;;;;;;4.14;71.52;99051.13;5129133;28;20089;-70
2022/04/20 01:39:58;;;;;;;7.75;6.28;;;;;;;4.14;71.52;99049.34;5128941;28;20070;-70
2022/04/20 01:42:28;;;;;;;7.20;6.47;;;;;;;3.79;71.34;98994.63;5129037;28;20051;-70
2022/04/20 01:45:01;;;;;;;6.97;6.22;;;;;;;4.13;71.22;99047.66;5128720;28;20055;-70
2022/04/20 01:47:29;;;;;;;8.05;7.25;;;;;;;3.83;71.24;99001.47;5127850;28;20097;-70
2022/04/20 01:49:59;;;;;;;7.97;6.30;;;;;;;3.76;70.97;98976.38;5128526;28;20044;-70
2022/04/20 01:52:31;;;;;;;8.07;5.80;;;;;;;4.17;71.04;99045.78;5129333;28;20027;-70
2022/04/20 01:54:59;;;;;;;8.60;5.80;;;;;;;3.58;70.86;98949.03;5128514;28;20051;-70
2022/04/20 01:57:29;;;;;;;6.57;5.88;;;;;;;4.09;71.18;99050.44;5128972;28;20038;-70
2022/04/20 01:59:59;;;;;;;5.88;5.00;;;;;;;4.05;71.08;99048.81;5127609;28;20036;-70
2022/04/20 02:02:35;;;;;;;7.88;6.32;;;;;;;4.05;71.18;99049.66;5127227;28;20055;-70
2022/04/20 02:05:06;;;;;;;7.65;6.45;;;;;;;4.06;71.31;99047.91;5128491;27;20063;-71
2022/04/20 02:07:36;;;;;;;7.45;6.28;;;;;;;4.02;71.13;99043.66;5127533;28;20051;-70
2022/04/20 02:10:06;;;;;;;8.23;6.50;;;;;;;4.00;71.35;99042.88;5128080;28;20088;-70
2022/04/20 02:12:35;;;;;;;7.13;6.40;;;;;;;3.98;71.31;99045.53;5128244;28;20073;-71
2022/04/20 02:15:06;;;;;;;6.53;5.57;;;;;;;3.41;71.46;98952.19;5127926;28;20040;-70
2022/04/20 02:17:37;;;;;;;7.63;6.85;;;;;;;3.46;71.83;98967.78;5127888;28;20039;-70
2022/04/20 02:20:06;;;;;;;6.95;6.25;;;;;;;3.96;71.36;99044.72;5128076;28;20046;-71
2022/04/20 02:22:36;;;;;;;8.18;6.85;;;;;;;3.90;71.65;99046.69;5128115;28;20063;-70
2022/04/20 02:25:07;;;;;;;6.97;6.28;;;;;;;3.83;71.96;99056.53;5127266;28;20044;-70
2022/04/20 02:27:35;;;;;;;8.27;6.80;;;;;;;3.82;72.01;99050.44;5126879;28;20040;-71
2022/04/20 02:30:07;;;;;;;9.10;7.18;;;;;;;3.84;71.93;99053.00;5127681;28;20096;-70
2022/04/20 02:32:36;;;;;;;7.82;6.72;;;;;;;3.78;72.19;99048.81;5127656;28;20045;-71
2022/04/20 02:35:06;;;;;;;9.38;8.35;;;;;;;3.82;71.93;99049.56;5128206;28;20085;-70
2022/04/20 02:37:38;;;;;;;6.97;5.68;;;;;;;2.10;71.76;98759.22;5127533;28;20028;-70
2022/04/20 02:40:07;;;;;;;8.25;7.45;;;;;;;3.88;71.72;99048.50;5127727;28;20055;-70
2022/04/20 02:42:36;;;;;;;7.70;6.65;;;;;;;3.86;71.67;99045.94;5127700;28;20084;-70
2022/04/20 02:45:07;;;;;;;7.47;6.68;;;;;;;2.37;71.73;98808.06;5127636;28;20046;-70
2022/04/20 02:47:37;;;;;;;9.63;7.65;;;;;;;3.48;72.16;98997.41;5127843;28;20031;-70
2022/04/20 02:50:08;;;;;;;7.35;6.63;;;;;;;3.86;71.75;99051.19;5127307;28;20046;-70
2022/04/20 02:52:38;;;;;;;7.07;6.35;;;;;;;3.89;71.92;99053.72;5127533;28;20039;-70
2022/04/20 02:55:07;;;;;;;8.50;7.15;;;;;;;2.65;71.52;98849.94;5127455;28;20039;-70
2022/04/20 02:57:37;;;;;;;8.15;7.35;;;;;;;3.86;72.02;99053.81;5127914;28;20032;-70
2022/04/20 03:00:08;;;;;;;8.75;7.63;;;;;;;3.57;71.81;99004.09;5127004;28;20053;-70
2022/04/20 03:02:37;;;;;;;8.55;7.32;;;;;;;3.85;71.89;99052.09;5126959;28;20048;-70
2022/04/20 03:05:08;;;;;;;8.73;7.85;;;;;;;3.82;72.07;99055.69;5126998;28;20039;-69
2022/04/20 03:07:39;;;;;;;8.65;7.38;;;;;;;3.52;71.59;98997.25;5127333;28;20110;-71
2022/04/20 03:10:09;;;;;;;9.80;7.38;;;;;;;3.85;71.67;99052.09;5126959;28;20059;-70
2022/04/20 03:12:38;;;;;;;8.10;7.03;;;;;;;3.84;71.85;99055.63;5127079;28;20096;-71
2022/04/20 03:15:09;;;;;;;8.82;7.88;;;;;;;3.85;71.51;99049.47;5126867;28;20042;-70
2022/04/20 03:17:38;;;;;;;8.00;7.05;;;;;;;3.84;71.62;99051.25;5126905;28;20063;-70
2022/04/20 03:20:08;;;;;;;9.40;7.82;;;;;;;3.58;71.51;99008.44;5126707;28;20032;-71
2022/04/20 03:22:40;;;;;;;8.35;7.47;;;;;;;3.76;72.01;99048.00;5126672;28;20059;-70
2022/04/20 03:25:11;;;;;;;7.88;6.93;;;;;;;3.73;71.85;99060.34;5126946;28;20040;-70
2022/04/20 03:27:38;;;;;;;8.52;7.13;;;;;;;2.57;71.81;98870.22;5126667;28;20077;-70
2022/04/20 03:30:10;;;;;;;9.07;8.18;;;;;;;3.75;72.00;99062.03;5126615;28;20036;-70
2022/04/20 03:32:39;;;;;;;9.30;7.43;;;;;;;3.76;72.00;99066.34;5127113;28;20039;-71
2022/04/20 03:35:09;;;;;;;8.13;7.28;;;;;;;3.48;71.79;99013.13;5125713;28;20040;-70
2022/04/20 03:37:40;;;;;;;8.77;7.82;;;;;;;3.76;71.81;99063.75;5126760;28;20058;-70
2022/04/20 03:40:11;;;;;;;9.15;7.75;;;;;;;3.73;71.86;99057.75;5126724;28;20098;-70
2022/04/20 03:42:39;;;;;;;10.55;8.27;;;;;;;3.78;71.96;99061.06;5126481;28;20052;-70
2022/04/20 03:45:10;;;;;;;7.68;6.85;;;;;;;3.79;71.64;99061.03;5126545;28;20115;-70
2022/04/20 03:47:39;;;;;;;9.30;7.82;;;;;;;3.83;71.17;99051.28;5126214;28;20248;-70
2022/04/20 03:50:10;;;;;;;7.45;6.60;;;;;;;3.84;71.57;99055.63;5126015;28;20101;-70
2022/04/20 03:52:41;;;;;;;8.40;7.50;;;;;;;3.47;71.41;98993.91;5126214;28;20039;-70
2022/04/20 03:55:10;;;;;;;8.23;7.40;;;;;;;3.77;71.63;99048.88;5126509;28;20027;-70
2022/04/20 03:57:40;;;;;;;8.70;7.78;;;;;;;3.49;71.63;99002.59;5125548;28;20040;-70
2022/04/20 04:00:12;;;;;;;9.85;7.95;;;;;;;3.82;71.33;99047.81;5126778;28;20085;-70
2022/04/20 04:02:40;;;;;;;9.23;7.32;;;;;;;3.71;71.19;99025.47;5125998;28;20055;-70
2022/04/20 04:05:10;;;;;;;9.18;7.75;;;;;;;3.24;71.28;98954.50;5126565;28;20032;-70
2022/04/20 04:07:42;;;;;;;8.02;7.22;;;;;;;3.47;71.60;98991.31;5126285;28;20039;-70
2022/04/20 04:10:11;;;;;;;9.10;7.20;;;;;;;3.59;71.36;99016.25;5124841;28;20046;-71
2022/04/20 04:12:41;;;;;;;9.57;8.55;;;;;;;3.79;71.60;99060.16;5126031;28;20085;-70
2022/04/20 04:15:11;;;;;;;8.70;7.75;;;;;;;3.81;71.54;99059.19;5125165;28;20039;-70
2022/04/20 04:17:41;;;;;;;11.57;9.10;;;;;;;3.79;71.87;99060.16;5126163;28;20047;-70
2022/04/20 04:20:11;;;;;;;9.68;7.90;;;;;;;3.56;71.69;99015.50;5126011;28;20047;-70
2022/04/20 04:22:42;;;;;;;10.40;8.48;;;;;;;3.84;71.75;99064.34;5126317;28;20229;-70
2022/04/20 04:25:11;;;;;;;9.43;8.43;;;;;;;3.79;71.87;99066.25;5126169;28;20284;-70
2022/04/20 04:27:41;;;;;;;9.27;8.27;;;;;;;3.82;71.86;99067.94;5126311;28;20422;-70
2022/04/20 04:30:12;;;;;;;10.32;8.90;;;;;;;3.86;71.50;99064.28;5125907;28;20035;-70
2022/04/20 04:32:41;;;;;;;9.32;8.10;;;;;;;3.89;71.70;99069.44;5125297;28;20031;-70
2022/04/20 04:35:12;;;;;;;9.88;8.88;;;;;;;3.92;71.81;99064.09;5125752;28;20088;-70
2022/04/20 04:37:43;;;;;;;9.95;8.85;;;;;;;4.00;71.22;99071.72;5126290;28;20069;-70
2022/04/20 04:40:14;;;;;;;10.77;9.00;;;;;;;3.65;71.67;99017.81;5125238;28;20035;-70
2022/04/20 04:42:42;;;;;;;10.75;9.02;;;;;;;4.00;71.46;99076.97;5126105;28;20054;-70
2022/04/20 04:50:51;;;;;;;8.73;7.82;;;;;;;4.05;71.46;99070.66;5125557;28;20157;-71
2022/04/20 04:53:25;;;;;;;10.93;8.82;;;;;;;4.09;71.14;99077.50;5124843;28;20077;-70
2022/04/20 04:55:57;;;;;;;10.02;8.85;;;;;;;4.12;71.06;99082.66;5125531;28;20345;-70
2022/04/20 04:58:29;;;;;;;10.40;8.40;;;;;;;4.10;71.18;99071.34;5125461;28;20204;-70
2022/04/20 05:01:02;;;;;;;12.48;9.45;;;;;;;3.43;71.09;98973.09;5125213;28;20055;-71
2022/04/20 05:03:34;;;;;;;9.75;8.52;;;;;;;4.22;70.97;99079.75;5125741;28;20089;-70
2022/04/20 05:06:06;;;;;;;9.38;8.48;;;;;;;4.19;71.15;99075.44;5125664;28;20036;-70
2022/04/20 05:08:40;;;;;;;11.25;9.20;;;;;;;4.21;71.63;99073.66;5125472;28;20218;-70
2022/04/20 05:11:12;;;;;;;9.88;8.82;;;;;;;4.25;71.06;99080.50;5125402;28;20043;-70
2022/04/20 05:13:45;;;;;;;11.10;9.88;;;;;;;4.04;70.88;99042.72;5125392;28;20047;-70
2022/04/20 05:16:17;;;;;;;9.88;8.27;;;;;;;4.31;71.41;99089.94;5125652;28;20051;-70
2022/04/20 05:18:51;;;;;;;10.18;8.95;;;;;;;4.17;70.88;99061.50;5125629;28;20039;-70
2022/04/20 05:21:24;;;;;;;9.95;8.88;;;;;;;4.33;70.72;99088.13;5125373;27;20069;-70
2022/04/20 05:23:58;;;;;;;10.55;9.40;;;;;;;4.39;70.85;99124.63;5128967;28;20085;-70
2022/04/20 05:26:31;;;;;;;10.30;8.52;;;;;;;4.46;70.96;99084.16;5128996;27;20329;-70
2022/04/20 05:29:03;;;;;;;11.60;9.63;;;;;;;4.49;70.82;99090.16;5129106;28;20081;-70
2022/04/20 05:31:35;;;;;;;11.52;9.20;;;;;;;4.51;70.51;99082.22;5129087;28;20067;-70
2022/04/20 05:34:09;;;;;;;9.57;8.32;;;;;;;4.52;70.63;99083.09;5128809;28;20040;-70
2022/04/20 05:42:21;;;;;;;11.32;9.05;;;;;;;4.35;70.04;99033.81;5128726;28;20089;-71
2022/04/20 05:44:54;;;;;;;11.40;9.00;;;;;;;4.68;70.00;99079.88;5127601;28;20047;-70
2022/04/20 05:47:28;;;;;;;10.60;9.50;;;;;;;4.65;69.86;99092.25;5128701;28;20317;-70
2022/04/20 05:50:00;;;;;;;10.10;9.07;;;;;;;4.68;69.96;99089.50;5128690;28;20040;-70
2022/04/20 05:52:32;;;;;;;9.98;8.30;;;;;;;2.60;69.78;98801.25;5128331;27;20089;-70
2022/04/20 05:55:08;;;;;;;10.55;9.45;;;;;;;4.73;70.60;99103.34;5128316;28;20047;-70
2022/04/20 05:57:40;;;;;;;11.70;9.23;;;;;;;3.04;69.96;98790.19;5128276;28;20069;-70
2022/04/20 06:00:10;;;;;;;12.30;9.63;;;;;;;3.59;70.09;98906.19;5128229;28;20043;-70
2022/04/20 06:02:40;;;;;;;10.32;9.15;;;;;;;4.95;70.07;99074.56;5127636;28;20059;-70
2022/04/20 06:05:10;;;;;;;9.50;8.52;;;;;;;5.05;69.67;99081.19;5128435;28;20051;-70
2022/04/20 06:07:40;;;;;;;11.32;9.65;;;;;;;5.15;69.31;99077.31;5128145;28;20039;-70
2022/04/20 06:10:11;;;;;;;10.50;8.48;;;;;;;5.26;68.95;99080.38;5128123;28;20039;-70
2022/04/20 06:12:42;;;;;;;9.55;8.55;;;;;;;5.35;68.75;99082.66;5128067;28;20039;-71
2022/04/20 06:15:10;;;;;;;12.05;9.85;;;;;;;5.12;68.74;99031.00;5127997;28;20046;-70
2022/04/20 06:17:40;;;;;;;11.45;9.40;;;;;;;6.41;66.57;99080.09;5128184;28;20039;-70
2022/04/20 06:20:11;;;;;;;13.18;9.57;;;;;;;10.89;54.70;99048.09;5128046;28;20039;-70
2022/04/20 06:22:41;;;;;;;10.15;8.48;;;;;;;13.53;47.15;99041.13;5128136;28;20036;-70
2022/04/20 06:25:12;;;;;;;9.40;8.23;;;;;;;15.04;43.26;99042.13;5127043;28;20035;-70
2022/04/20 06:27:41;;;;;;;9.32;8.27;;;;;;;16.11;41.69;99022.81;5127036;28;20039;-71
2022/04/20 06:30:11;;;;;;;8.75;7.80;;;;;;;16.94;40.80;99022.88;5126889;28;20103;-71
2022/04/20 06:32:41;;;;;;;9.45;7.70;;;;;;;17.36;38.82;99017.44;5127375;28;20043;-70
2022/04/20 06:35:12;;;;;;;10.02;8.85;;;;;;;17.89;38.43;99017.19;5127908;28;20059;-71
2022/04/20 06:37:41;;;;;;;9.55;8.07;;;;;;;18.47;38.56;99017.19;5127679;28;20043;-71
2022/04/20 06:40:13;;;;;;;10.77;8.98;;;;;;;17.92;36.54;98964.13;5127539;28;20043;-71
2022/04/20 06:42:42;;;;;;;11.00;8.32;;;;;;;18.28;38.83;99016.22;5127704;28;20032;-71
2022/04/20 06:45:12;;;;;;;9.18;7.63;;;;;;;17.24;39.57;98938.19;5127423;28;20107;-71
2022/04/20 06:47:42;;;;;;;9.38;8.43;;;;;;;16.76;41.03;99023.59;5127178;28;20085;-71
2022/04/20 06:50:12;;;;;;;8.20;7.13;;;;;;;15.38;42.91;99029.63;5127127;28;20050;-71
2022/04/20 06:58:41;;;;;;;8.85;7.95;;;;;;;12.67;51.36;99040.97;5127474;28;20077;-71
2022/04/20 07:01:14;;;;;;;9.38;8.32;;;;;;;12.34;51.79;99036.16;5126766;28;20056;-71
2022/04/20 07:03:47;;;;;;;11.43;7.72;;;;;;;11.93;52.64;99018.44;5126675;28;20043;-71
2022/04/20 07:06:19;;;;;;;9.30;8.30;;;;;;;11.57;54.32;98996.00;5127226;28;20047;-71
2022/04/20 07:08:52;;;;;;;10.18;9.07;;;;;;;11.30;53.96;99042.03;5126056;28;20207;-71
2022/04/20 07:11:28;;;;;;;8.93;8.02;;;;;;;10.67;54.78;99045.00;5126851;28;20035;-70
2022/04/20 07:14:00;;;;;;;9.52;8.50;;;;;;;10.45;56.83;99048.09;5126682;27;20050;-71
2022/04/20 07:16:32;;;;;;;9.60;8.32;;;;;;;9.78;56.64;98989.34;5126996;28;20231;-71
2022/04/20 07:19:05;;;;;;;10.98;8.55;;;;;;;9.82;58.11;99030.56;5126904;28;20162;-71
2022/04/20 07:21:37;;;;;;;9.00;8.10;;;;;;;9.77;57.81;99051.16;5126793;28;20039;-71
2022/04/20 07:24:09;;;;;;;9.82;8.88;;;;;;;9.75;58.42;99041.59;5126841;28;20047;-71
2022/04/20 07:26:43;;;;;;;10.18;9.15;;;;;;;9.77;57.48;99042.38;5126477;28;20051;-71
2022/04/20 07:29:15;;;;;;;8.52;7.63;;;;;;;9.78;56.65;99033.50;5126545;27;20046;-71
2022/04/20 07:31:47;;;;;;;10.30;8.10;;;;;;;9.86;57.96;99050.63;5126536;28;20043;-71
2022/04/20 07:34:19;;;;;;;10.10;8.80;;;;;;;9.43;57.74;99004.59;5126614;28;20043;-70
2022/04/20 07:36:51;;;;;;;9.32;8.32;;;;;;;9.29;58.09;99004.47;5126562;28;20061;-71
2022/04/20 07:39:24;;;;;;;10.10;8.90;;;;;;;9.45;58.50;99046.81;5125625;28;20118;-71
2022/04/20 07:41:57;;;;;;;8.80;7.80;;;;;;;9.37;58.26;99052.50;5126281;28;20044;-71
2022/04/20 07:44:30;;;;;;;11.10;9.30;;;;;;;8.61;58.65;98966.75;5125720;28;20126;-70
2022/04/20 07:47:02;;;;;;;9.57;8.60;;;;;;;9.45;58.54;99049.47;5126605;28;20241;-71
2022/04/20 07:52:24;;;;;;;10.25;9.07;;;;;;;9.49;57.64;99045.72;5126256;28;20084;-70
2022/04/20 07:54:56;;;;;;;11.15;9.57;;;;;;;8.78;57.31;98929.69;5126385;28;20040;-71
2022/04/20 07:57:30;;;;;;;10.23;9.18;;;;;;;9.60;57.25;99048.59;5126065;28;20043;-70
2022/04/20 08:00:03;;;;;;;9.88;8.65;;;;;;;9.68;57.40;99032.31;5126052;28;20039;-71
2022/04/20 08:02:35;;;;;;;10.35;8.48;;;;;;;9.89;56.87;99037.22;5125707;28;20052;-71
2022/04/20 08:05:06;;;;;;;10.32;8.18;;;;;;;9.95;56.33;99043.97;5108443;28;20303;-71
2022/04/20 08:07:35;;;;;;;10.15;9.07;;;;;;;9.78;55.95;99018.47;5126173;28;20036;-70
2022/04/20 08:10:07;;;;;;;10.57;9.57;;;;;;;10.04;55.81;99043.44;5126268;28;20036;-71
2022/04/20 08:12:39;;;;;;;10.25;9.00;;;;;;;10.09;55.38;99032.56;5126144;28;20036;-71
2022/04/20 08:15:12;;;;;;;10.10;8.75;;;;;;;10.19;55.72;99036.38;5126138;28;20066;-71
2022/04/20 08:17:41;;;;;;;10.63;9.07;;;;;;;9.80;55.36;98939.81;5125815;28;20036;-71
2022/04/20 08:20:12;;;;;;;10.45;9.02;;;;;;;9.06;55.12;98872.66;5125842;28;20349;-71
2022/04/20 08:22:42;;;;;;;11.13;8.45;;;;;;;10.18;55.41;99026.75;5125601;28;20042;-70
2022/04/20 08:25:13;;;;;;;10.48;9.38;;;;;;;10.27;55.02;99021.75;5126307;28;20056;-70
2022/04/20 08:27:42;;;;;;;9.90;8.30;;;;;;;10.34;54.59;99027.53;5124848;28;20039;-70
2022/04/20 08:30:12;;;;;;;9.82;8.82;;;;;;;10.27;54.64;99019.09;5125520;28;20027;-70
2022/04/20 08:32:42;;;;;;;12.95;9.75;;;;;;;10.27;55.42;99018.25;5124881;28;20046;-70
2022/04/20 08:35:11;;;;;;;11.50;10.10;;;;;;;10.44;54.91;99014.59;5124920;28;20043;-70
2022/04/20 08:37:42;;;;;;;12.50;9.73;;;;;;;10.44;55.28;99023.41;5125584;28;20035;-70
2022/04/20 08:40:13;;;;;;;10.57;9.40;;;;;;;9.81;53.15;98903.63;5125814;28;20035;-70
2022/04/20 08:42:44;;;;;;;10.40;9.27;;;;;;;10.84;53.45;99007.75;5125458;28;20085;-70
2022/04/20 08:45:13;;;;;;;11.63;10.52;;;;;;;10.96;52.42;98976.97;5125740;28;20156;-70
2022/04/20 08:47:45;;;;;;;12.45;9.02;;;;;;;11.41;51.39;98997.09;5125235;28;20073;-70
2022/04/20 08:50:13;;;;;;;11.68;10.13;;;;;;;10.54;51.61;98809.94;5124951;28;20127;-70
2022/04/20 08:52:49;;;;;;;11.70;9.35;;;;;;;11.49;50.75;98909.88;5125217;28;20023;-70
2022/04/20 08:55:21;;;;;;;11.68;10.18;;;;;;;12.27;50.22;98985.22;5124878;28;20199;-70
2022/04/20 08:57:54;;;;;;;13.05;11.57;;;;;;;12.39;48.79;98981.72;5129867;28;20062;-70
2022/04/20 09:00:28;;;;;;;10.88;9.73;;;;;;;12.47;48.77;98979.41;5129940;28;20040;-70
2022/04/20 09:03:03;;;;;;;12.35;9.35;;;;;;;12.58;48.56;98967.16;5129336;28;20047;-70
2022/04/20 09:05:36;;;;;;;11.82;9.95;;;;;;;12.45;47.25;98916.66;5111380;28;20043;-70
2022/04/20 09:08:10;;;;;;;11.48;8.95;;;;;;;13.04;45.97;98956.81;5129046;28;20047;-70
2022/04/20 09:10:44;;;;;;;9.43;8.05;;;;;;;13.05;46.75;98956.69;5129004;28;20043;-69
2022/04/20 09:13:18;;;;;;;10.85;9.63;;;;;;;13.42;46.18;98957.56;5129190;28;20047;-70
2022/04/20 09:15:52;;;;;;;11.40;9.30;;;;;;;13.72;46.56;98954.47;5128228;28;20043;-70
2022/04/20 09:18:28;;;;;;;9.18;8.13;;;;;;;13.65;43.15;98953.22;5128788;28;20344;-70
2022/04/20 09:21:08;;;;;;;9.88;7.97;;;;;;;13.62;42.03;98948.13;5128278;28;20040;-70
2022/04/20 09:23:41;;;;;;;8.02;7.03;;;;;;;13.63;45.26;98906.38;5127786;28;20048;-70
2022/04/20 09:26:15;;;;;;;11.43;8.88;;;;;;;12.17;44.22;98641.47;5127953;28;20040;-70
2022/04/20 09:29:07;;;;;;;9.88;8.90;;;;;;;14.11;39.70;98947.94;5128709;28;20035;-70
2022/04/20 09:31:42;;;;;;;9.82;8.88;;;;;;;13.92;41.74;98944.97;5128577;28;20085;-70
2022/04/20 09:34:34;;;;;;;9.70;8.68;;;;;;;14.03;40.33;98937.03;5128495;28;20153;-70
2022/04/20 09:37:14;;;;;;;8.48;7.68;;;;;;;13.95;41.37;98907.44;5128624;28;20176;-70
2022/04/20 09:39:47;;;;;;;9.52;8.32;;;;;;;14.22;44.25;98892.97;5128515;28;20039;-70
2022/04/20 09:42:20;;;;;;;10.23;8.73;;;;;;;14.41;42.08;98941.25;5128526;28;20181;-70
2022/04/20 09:44:55;;;;;;;9.20;8.30;;;;;;;14.25;42.29;98920.25;5128429;28;20101;-70
2022/04/20 09:50:21;;;;;;;10.73;8.25;;;;;;;13.89;40.40;98939.03;5128415;28;20043;-70
2022/04/20 09:52:55;;;;;;;9.50;8.10;;;;;;;13.53;44.30;98882.25;5127465;28;20284;-70
2022/04/20 09:55:29;;;;;;;9.73;8.50;;;;;;;13.64;43.67;98940.88;5128402;28;20047;-70
2022/04/20 09:58:12;;;;;;;9.10;8.20;;;;;;;13.58;41.15;98921.84;5127963;28;20039;-70
2022/04/20 10:00:48;;;;;;;10.43;8.75;;;;;;;13.41;43.75;98885.78;5127845;28;20039;-71
2022/04/20 10:03:24;;;;;;;8.82;7.60;;;;;;;13.54;41.51;98918.56;5128030;28;20085;-71
2022/04/20 10:05:57;;;;;;;8.85;7.68;;;;;;;13.12;44.73;98870.16;5127395;28;20039;-71
2022/04/20 10:08:30;;;;;;;9.82;8.80;;;;;;;13.37;43.97;98908.25;5127502;28;20035;-70
2022/04/20 10:11:04;;;;;;;9.82;8.00;;;;;;;13.34;44.30;98913.81;5127245;28;20052;-70
2022/04/20 10:13:37;;;;;;;9.73;8.73;;;;;;;13.24;44.16;98913.63;5127649;28;20043;-71
2022/04/20 10:16:12;;;;;;;8.45;7.55;;;;;;;13.33;43.67;98904.97;5127864;28;20385;-71
2022/04/20 10:18:50;;;;;;;9.20;7.97;;;;;;;13.47;43.16;98904.00;5127011;28;20039;-71
2022/04/20 10:21:25;;;;;;;8.07;7.05;;;;;;;13.60;42.80;98902.13;5127768;28;20040;-70
2022/04/20 10:24:05;;;;;;;8.30;7.20;;;;;;;13.71;41.14;98894.19;5127811;28;20059;-70
2022/04/20 10:26:38;;;;;;;8.70;7.70;;;;;;;13.87;41.27;98893.88;5127764;28;20047;-70
2022/04/20 10:29:17;;;;;;;7.88;7.07;;;;;;;13.41;38.78;98846.72;5127680;28;20039;-70
2022/04/20 10:31:58;;;;;;;7.70;6.93;;;;;;;13.18;39.46;98852.03;5126751;28;20040;-70
2022/04/20 10:34:31;;;;;;;8.75;7.10;;;;;;;13.37;42.51;98885.16;5127838;27;20043;-70
2022/04/20 10:37:07;;;;;;;8.85;7.78;;;;;;;13.54;40.04;98883.94;5126873;28;20291;-70
2022/04/20 10:39:41;;;;;;;9.85;8.85;;;;;;;13.59;41.97;98884.44;5127187;28;20088;-70
2022/04/20 10:42:23;;;;;;;8.48;7.68;;;;;;;13.39;39.61;98869.94;5127021;28;20035;-70
2022/04/20 10:45:03;;;;;;;8.95;8.05;;;;;;;13.15;40.49;98830.00;5127115;28;20084;-69
2022/04/20 10:47:40;;;;;;;9.38;8.45;;;;;;;12.77;41.95;98806.22;5126001;28;20200;-70
2022/04/20 10:50:16;;;;;;;8.60;7.75;;;;;;;13.25;42.87;98879.91;5126225;28;20296;-69
2022/04/20 10:52:56;;;;;;;8.52;7.72;;;;;;;13.12;41.32;98882.59;5126897;28;20047;-70
2022/04/20 10:55:51;;;;;;;8.63;7.50;;;;;;;13.16;40.66;98876.09;5125883;28;20353;-70
2022/04/20 10:58:23;;;;;;;9.57;8.20;;;;;;;13.06;43.13;99008.09;5126359;28;20088;-70
2022/04/20 11:01:09;;;;;;;8.70;7.85;;;;;;;12.77;40.64;98845.28;5126191;28;20058;-70
2022/04/20 11:04:05;;;;;;;9.95;7.47;;;;;;;12.82;40.27;98877.69;5126658;28;20347;-70
2022/04/20 11:07:14;;;;;;;8.63;7.05;;;;;;;12.75;39.89;98885.25;5127031;28;20044;-71
2022/04/20 11:09:49;;;;;;;7.70;6.75;;;;;;;12.52;43.23;98880.72;5126788;28;20039;-71
2022/04/20 11:18:45;;;;;;;8.63;7.72;;;;;;;11.96;43.39;98824.38;5126013;28;20040;-70
2022/04/20 11:21:21;;;;;;;8.35;7.55;;;;;;;11.91;43.25;98823.84;5126026;28;20043;-70
2022/04/20 11:23:57;;;;;;;8.45;7.68;;;;;;;12.18;43.40;98874.25;5126273;28;20043;-70
2022/04/20 11:26:34;;;;;;;9.10;8.18;;;;;;;9.79;44.28;98492.69;5125753;28;20044;-70
2022/04/20 11:29:12;;;;;;;10.55;8.93;;;;;;;12.32;42.33;98868.84;5126291;28;20062;-70
2022/04/20 11:31:47;;;;;;;12.20;9.40;;;;;;;11.78;43.08;98707.00;5125400;28;20229;-69
2022/04/20 11:34:21;;;;;;;11.43;10.15;;;;;;;12.70;43.36;98847.53;5126317;28;20043;-70
2022/04/20 11:36:57;;;;;;;10.37;9.17;;;;;;;12.73;42.20;98854.44;5125922;28;20230;-69
2022/04/20 11:39:31;;;;;;;10.80;9.20;;;;;;;12.34;42.91;98808.47;5126026;28;20428;-70
2022/04/20 11:42:06;;;;;;;8.18;6.82;;;;;;;12.62;42.12;98843.72;5125365;28;20242;-70
2022/04/20 11:44:40;;;;;;;8.98;8.00;;;;;;;12.49;42.54;98854.38;5125554;28;20043;-69
2022/04/20 11:47:17;;;;;;;8.32;7.22;;;;;;;12.03;42.67;98767.25;5125722;28;20058;-70
2022/04/20 11:49:49;;;;;;;9.55;8.50;;;;;;;12.50;42.96;98840.97;5125660;28;20100;-70
2022/04/20 11:52:23;;;;;;;10.20;8.10;;;;;;;12.75;42.94;98833.91;5125904;28;20084;-69
2022/04/20 11:55:05;;;;;;;8.73;7.83;;;;;;;12.84;40.72;98798.66;5125731;28;20089;-70
2022/04/20 11:57:38;;;;;;;9.68;7.97;;;;;;;13.26;41.25;98828.38;5125918;28;20288;-69
2022/04/20 12:00:12;;;;;;;8.65;7.72;;;;;;;13.02;41.06;98793.78;5125801;28;20234;-69
2022/04/20 12:02:40;;;;;;;9.30;8.40;;;;;;;13.27;41.29;98828.25;5125335;28;20055;-69
2022/04/20 12:05:12;;;;;;;8.73;7.80;;;;;;;13.28;40.43;98827.28;5125576;28;20119;-70
2022/04/20 12:07:42;;;;;;;9.32;8.38;;;;;;;13.31;41.33;98821.75;5124634;28;20063;-70
2022/04/20 12:10:11;;;;;;;8.50;7.28;;;;;;;13.47;41.14;98810.81;5125832;28;20039;-70
2022/04/20 12:12:42;;;;;;;8.52;7.65;;;;;;;13.54;39.91;98766.81;5125735;28;20043;-70
2022/04/20 12:15:11;;;;;;;8.10;7.20;;;;;;;13.94;39.97;98811.66;5125898;28;20043;-70
2022/04/20 12:17:42;;;;;;;9.93;8.35;;;;;;;14.05;40.10;98809.00;5125615;28;20032;-70
2022/04/20 12:20:12;;;;;;;9.43;7.40;;;;;;;14.09;40.52;98797.16;5125921;28;20039;-70
2022/04/20 12:22:44;;;;;;;11.70;9.45;;;;;;;14.19;37.84;98795.47;5125540;28;20028;-70
2022/04/20 12:25:14;;;;;;;9.85;8.70;;;;;;;13.19;39.32;98675.47;5124954;28;20051;-69
2022/04/20 12:27:52;;;;;;;8.02;7.22;;;;;;;13.93;36.96;98800.16;5125044;28;20101;-69
2022/04/20 12:30:35;;;;;;;9.63;8.00;;;;;;;13.78;37.36;98809.34;5125862;28;20043;-69